Time;durP1;ratioP1;P1;durP2;ratioP2;P2;SDS_P1;SDS_P2;PMS_P1;PMS_P2;Temp;Humidity;BMP_temperature;BMP_pressure;BME280_temperature;BME280_humidity;BME280_pressure;Samples;Min_cycle;Max_cycle;Signal;HPM_P1;HPM_P2
2022/08/12 00:44:26;;;;;;;0.00;0.00;;;19.40;99.90;;;;;;5046125;28;20107;-73
2022/08/12 00:46:58;;;;;;;0.00;0.00;;;19.60;99.90;;;;;;5051721;28;20429;-73
2022/08/12 00:49:28;;;;;;;0.00;0.00;;;19.70;99.90;;;;;;5038699;28;20112;-73
2022/08/12 00:52:08;;;;;;;0.00;0.00;;;20.00;99.90;;;;;;5040599;28;20041;-73
2022/08/12 00:54:43;;;;;;;0.00;0.00;;;20.00;99.90;;;;;;5039923;28;20045;-73
2022/08/12 00:57:16;;;;;;;0.00;0.00;;;20.30;99.90;;;;;;5038986;28;20559;-73
2022/08/12 00:59:50;;;;;;;0.00;0.00;;;20.60;99.90;;;;;;5043654;28;20516;-73
2022/08/12 01:02:39;;;;;;;0.00;0.00;;;21.20;99.90;;;;;;5050346;28;20029;-75
2022/08/12 01:13:27;;;;;;;0.00;0.00;;;22.20;99.90;;;;;;5046639;28;20083;-72
2022/08/12 01:15:57;;;;;;;0.00;0.00;;;22.50;91.60;;;;;;5049402;28;20179;-73
2022/08/12 01:18:28;;;;;;;0.00;0.00;;;22.80;91.60;;;;;;5048932;28;20029;-73
2022/08/12 01:21:15;;;;;;;0.00;0.00;;;23.10;93.30;;;;;;5044334;28;20036;-73
2022/08/12 01:23:50;;;;;;;0.00;0.00;;;23.60;90.80;;;;;;5043513;28;20040;-74
2022/08/12 01:26:19;;;;;;;0.75;0.75;;;24.00;89.10;;;;;;5049797;28;20060;-73
2022/08/12 01:28:48;;;;;;;0.00;0.00;;;24.20;83.40;;;;;;5049828;28;20596;-74
2022/08/12 01:31:16;;;;;;;0.00;0.00;;;24.60;79.80;;;;;;5037924;28;20029;-74
2022/08/12 01:33:51;;;;;;;0.03;0.03;;;24.60;78.70;;;;;;5034189;28;20121;-74
2022/08/12 01:36:21;;;;;;;0.00;0.00;;;24.80;75.40;;;;;;5028541;28;20029;-73
2022/08/12 01:38:50;;;;;;;0.00;0.00;;;25.20;69.40;;;;;;5050797;28;20029;-73
2022/08/12 01:41:20;;;;;;;0.00;0.00;;;25.70;65.90;;;;;;5040365;28;20079;-73
2022/08/12 01:43:48;;;;;;;0.00;0.00;;;25.90;66.70;;;;;;5042289;28;20489;-73
2022/08/12 01:46:52;;;;;;;0.10;0.10;;;26.30;64.90;;;;;;5038848;28;20029;-73
2022/08/12 01:49:42;;;;;;;0.00;0.00;;;26.50;62.60;;;;;;4985835;28;20077;-73
2022/08/12 01:52:19;;;;;;;0.00;0.00;;;27.00;60.60;;;;;;4985425;28;20046;-73
2022/08/12 01:54:46;;;;;;;2.50;2.35;;;27.20;58.50;;;;;;5028817;28;20445;-73
2022/08/12 01:57:25;;;;;;;0.00;0.00;;;27.10;58.30;;;;;;5052285;28;20031;-74
2022/08/12 02:00:06;;;;;;;0.00;0.00;;;27.50;57.40;;;;;;5051817;28;20037;-73
2022/08/12 02:02:46;;;;;;;0.00;0.00;;;27.10;56.60;;;;;;5049771;28;20035;-73
2022/08/12 02:11:56;;;;;;;0.08;0.08;;;28.50;51.30;;;;;;5040472;28;20072;-73
2022/08/12 02:14:50;;;;;;;0.00;0.00;;;29.50;49.30;;;;;;5044340;28;20431;-73
2022/08/12 02:17:43;;;;;;;0.00;0.00;;;30.60;46.50;;;;;;5027086;28;20053;-74
2022/08/12 02:20:21;;;;;;;0.52;0.52;;;31.70;44.20;;;;;;5026313;28;20460;-74
2022/08/12 02:22:49;;;;;;;0.00;0.00;;;32.10;42.70;;;;;;5029476;28;20031;-74
2022/08/12 02:25:25;;;;;;;2.22;2.13;;;32.30;42.10;;;;;;5032320;28;20160;-73
2022/08/12 02:27:53;;;;;;;0.20;0.20;;;32.30;41.20;;;;;;5031455;28;20116;-73
2022/08/12 02:30:23;;;;;;;0.05;0.05;;;32.10;40.60;;;;;;5031136;28;20464;-73
2022/08/12 02:32:51;;;;;;;0.00;0.00;;;31.90;40.10;;;;;;5032468;28;20037;-74
2022/08/12 02:35:22;;;;;;;0.00;0.00;;;31.70;40.50;;;;;;5028363;28;20069;-74
2022/08/12 02:37:54;;;;;;;0.10;0.10;;;31.80;40.60;;;;;;5025583;28;20112;-74
2022/08/12 02:40:22;;;;;;;0.88;0.25;;;30.40;41.40;;;;;;5027084;28;20034;-74
2022/08/12 02:42:56;;;;;;;0.00;0.00;;;30.40;42.80;;;;;;5026309;28;20048;-73
2022/08/12 02:45:50;;;;;;;0.45;0.45;;;30.90;41.10;;;;;;5022709;28;20072;-73
2022/08/12 02:48:38;;;;;;;0.60;0.60;;;31.40;40.40;;;;;;5017260;28;20470;-73
2022/08/12 02:51:08;;;;;;;0.00;0.00;;;31.80;40.60;;;;;;5025575;28;20069;-75
2022/08/12 02:53:36;;;;;;;0.35;0.32;;;32.10;40.00;;;;;;5022921;28;20112;-73
2022/08/12 02:56:11;;;;;;;0.10;0.10;;;30.00;40.70;;;;;;5021276;28;20033;-74
2022/08/12 02:58:38;;;;;;;0.13;0.13;;;30.20;42.20;;;;;;5025236;28;20025;-73
2022/08/12 03:01:10;;;;;;;0.30;0.30;;;30.60;41.10;;;;;;5017195;28;20072;-74
2022/08/12 03:03:37;;;;;;;0.13;0.13;;;30.80;40.50;;;;;;5022590;28;20048;-74
2022/08/12 03:06:12;;;;;;;0.90;0.90;;;31.20;39.70;;;;;;5023364;28;20040;-74
2022/08/12 03:08:41;;;;;;;0.15;0.15;;;31.50;39.30;;;;;;5022322;28;20030;-73
2022/08/12 03:11:20;;;;;;;0.10;0.10;;;31.70;39.10;;;;;;5021811;28;20040;-72
2022/08/12 03:13:52;;;;;;;0.00;0.00;;;32.10;39.00;;;;;;5023520;28;20036;-75
2022/08/12 03:16:19;;;;;;;0.13;0.13;;;32.30;38.50;;;;;;5021322;28;20160;-75
2022/08/12 03:18:47;;;;;;;0.77;0.55;;;32.30;38.70;;;;;;5032254;28;20078;-74
2022/08/12 03:21:23;;;;;;;0.52;0.52;;;32.10;39.20;;;;;;5032685;28;20505;-75
2022/08/12 03:23:53;;;;;;;0.00;0.00;;;31.70;39.30;;;;;;5022509;28;20138;-75
2022/08/12 03:26:25;;;;;;;0.30;0.30;;;31.70;39.80;;;;;;5029928;28;20187;-74
2022/08/12 03:28:56;;;;;;;0.30;0.30;;;30.80;40.50;;;;;;5027053;28;20092;-73
2022/08/12 03:31:32;;;;;;;0.43;0.43;;;30.10;40.90;;;;;;5026427;28;20384;-74
2022/08/12 03:34:08;;;;;;;0.00;0.00;;;29.50;42.30;;;;;;5030005;28;20735;-74
2022/08/12 03:36:38;;;;;;;0.00;0.00;;;29.20;42.90;;;;;;5029775;28;20302;-74
2022/08/12 03:42:01;;;;;;;3.65;2.95;;;27.30;47.10;;;;;;5040227;28;20128;-73
2022/08/12 04:01:56;;;;;;;2.20;0.95;;;25.60;50.30;;;;;;5027508;28;20124;-75
2022/08/12 04:04:28;;;;;;;0.10;0.10;;;25.00;51.30;;;;;;5032071;28;20037;-74
2022/08/12 04:06:56;;;;;;;0.00;0.00;;;25.30;50.70;;;;;;5018164;28;20087;-76
2022/08/12 04:09:25;;;;;;;4.53;4.20;;;25.70;51.00;;;;;;5027852;28;20040;-77
2022/08/12 04:14:36;;;;;;;4.65;4.18;;;25.50;50.90;;;;;;5028921;28;20105;-76
2022/08/12 04:17:03;;;;;;;0.20;0.20;;;25.20;51.30;;;;;;5031694;28;20049;-76
2022/08/12 04:19:30;;;;;;;0.00;0.00;;;25.00;50.60;;;;;;5031706;28;20037;-76
2022/08/12 04:21:56;;;;;;;0.00;0.00;;;25.00;51.40;;;;;;5042781;28;20044;-77
2022/08/12 04:24:25;;;;;;;0.95;0.90;;;25.20;51.80;;;;;;5038476;28;20123;-76
2022/08/12 04:26:51;;;;;;;0.45;0.45;;;25.20;51.20;;;;;;5034837;28;20033;-76
2022/08/12 04:29:23;;;;;;;0.00;0.00;;;25.30;51.10;;;;;;5035759;28;20034;-76
2022/08/12 04:31:49;;;;;;;0.10;0.10;;;25.50;51.50;;;;;;5025529;28;20052;-75
2022/08/12 04:34:16;;;;;;;0.47;0.22;;;25.60;51.10;;;;;;5030903;28;20052;-78
2022/08/12 04:36:43;;;;;;;0.00;0.00;;;25.50;51.10;;;;;;5031264;28;20392;-76
2022/08/12 04:39:10;;;;;;;0.00;0.00;;;25.50;51.90;;;;;;5034890;28;20116;-76
2022/08/12 04:41:38;;;;;;;0.00;0.00;;;25.80;51.10;;;;;;5018836;28;20034;-78
2022/08/12 04:44:05;;;;;;;0.38;0.38;;;26.20;50.30;;;;;;5037584;28;20463;-76
2022/08/12 04:46:32;;;;;;;0.20;0.20;;;26.30;49.60;;;;;;5033010;28;20488;-78
2022/08/12 04:48:59;;;;;;;0.00;0.00;;;26.40;49.90;;;;;;5027141;28;20066;-77
2022/08/12 04:51:27;;;;;;;0.22;0.17;;;26.40;49.60;;;;;;5026674;28;20266;-77
2022/08/12 04:53:53;;;;;;;0.00;0.00;;;26.50;49.70;;;;;;5018118;28;20029;-77
2022/08/12 04:56:19;;;;;;;1.85;1.75;;;26.60;49.40;;;;;;5025625;28;20033;-76
2022/08/12 04:58:45;;;;;;;0.00;0.00;;;26.70;49.30;;;;;;5029278;28;20484;-77
2022/08/12 05:01:12;;;;;;;0.00;0.00;;;26.60;49.20;;;;;;5028842;28;20033;-77
2022/08/12 05:03:38;;;;;;;0.00;0.00;;;26.30;50.40;;;;;;5027073;28;20117;-77
2022/08/12 05:06:05;;;;;;;4.10;1.40;;;26.40;49.60;;;;;;5026733;28;20037;-76
2022/08/12 05:08:33;;;;;;;0.20;0.17;;;26.10;50.90;;;;;;5029224;28;20484;-77
2022/08/12 05:11:00;;;;;;;0.25;0.20;;;26.00;51.40;;;;;;5028928;28;20045;-77
2022/08/12 05:13:36;;;;;;;1.33;1.23;;;25.80;51.50;;;;;;5024244;28;20029;-76
2022/08/12 05:16:03;;;;;;;0.00;0.00;;;25.90;51.80;;;;;;5029574;28;20095;-77
2022/08/12 05:18:29;;;;;;;0.00;0.00;;;25.80;51.90;;;;;;5034345;28;20048;-77
2022/08/12 05:20:58;;;;;;;0.00;0.00;;;26.20;52.60;;;;;;5037167;28;20414;-77
2022/08/12 05:23:24;;;;;;;0.55;0.43;;;26.20;52.30;;;;;;5035104;28;20569;-77
2022/08/12 05:25:55;;;;;;;0.85;0.85;;;26.30;51.50;;;;;;5035266;28;20083;-77
2022/08/12 05:28:22;;;;;;;0.00;0.00;;;26.10;52.40;;;;;;5033375;28;20079;-77
2022/08/12 05:30:49;;;;;;;0.03;0.03;;;26.30;51.80;;;;;;5033065;28;20131;-77
2022/08/12 05:33:15;;;;;;;1.88;0.88;;;26.40;51.50;;;;;;5040604;28;20485;-77
2022/08/12 05:35:44;;;;;;;0.22;0.10;;;26.20;51.80;;;;;;5031088;28;20128;-77
2022/08/12 05:40:58;;;;;;;0.28;0.28;;;25.80;52.20;;;;;;5026838;28;20037;-77
2022/08/12 05:43:25;;;;;;;1.65;0.85;;;25.60;52.70;;;;;;5022469;28;20491;-77
2022/08/12 05:45:51;;;;;;;1.50;1.40;;;25.70;53.20;;;;;;5028191;28;20041;-77
2022/08/12 05:48:18;;;;;;;0.00;0.00;;;25.80;53.80;;;;;;5031188;28;20040;-77
2022/08/12 05:50:45;;;;;;;0.00;0.00;;;25.90;53.30;;;;;;5033294;28;20041;-77
2022/08/12 05:53:12;;;;;;;0.00;0.00;;;26.20;52.90;;;;;;5024980;28;20031;-77
2022/08/12 05:55:41;;;;;;;1.35;0.57;;;26.40;52.40;;;;;;5030985;28;20109;-79
2022/08/12 05:58:07;;;;;;;0.55;0.10;;;26.30;51.50;;;;;;5012682;28;20040;-77
2022/08/12 06:00:35;;;;;;;0.30;0.30;;;26.40;52.30;;;;;;5025695;28;20038;-76
2022/08/12 06:03:03;;;;;;;0.30;0.30;;;26.00;52.20;;;;;;5030244;28;20530;-77
2022/08/12 06:05:37;;;;;;;0.30;0.30;;;26.00;52.80;;;;;;5032008;28;20570;-77
2022/08/12 06:08:05;;;;;;;0.00;0.00;;;26.30;52.40;;;;;;5036889;28;20039;-77
2022/08/12 06:10:39;;;;;;;0.00;0.00;;;26.60;52.20;;;;;;5026570;28;20476;-77
2022/08/12 06:13:07;;;;;;;0.28;0.28;;;26.80;51.40;;;;;;5027494;28;20036;-79
2022/08/12 06:15:36;;;;;;;0.00;0.00;;;26.80;52.40;;;;;;5037811;28;20402;-78
2022/08/12 06:18:07;;;;;;;0.00;0.00;;;26.90;51.50;;;;;;5034793;28;20032;-77
2022/08/12 06:20:34;;;;;;;0.28;0.25;;;26.90;51.40;;;;;;5043986;28;20440;-77
2022/08/12 06:23:01;;;;;;;0.95;0.90;;;27.00;51.90;;;;;;5050232;28;20112;-78
2022/08/12 06:25:28;;;;;;;0.00;0.00;;;26.80;52.10;;;;;;5046827;28;20029;-78
2022/08/12 06:27:57;;;;;;;2.15;2.05;;;26.80;52.20;;;;;;5046244;28;20531;-76
2022/08/12 06:30:28;;;;;;;2.75;1.35;;;26.80;52.10;;;;;;5040247;28;20517;-78
2022/08/12 06:32:55;;;;;;;0.00;0.00;;;26.50;51.80;;;;;;5055658;28;20055;-77
2022/08/12 06:35:21;;;;;;;0.00;0.00;;;26.10;52.80;;;;;;5029926;28;20124;-78
2022/08/12 06:37:54;;;;;;;0.43;0.43;;;26.30;53.30;;;;;;5051954;28;20056;-78
2022/08/12 06:43:07;;;;;;;0.00;0.00;;;26.80;52.00;;;;;;5048897;28;20044;-78
2022/08/12 06:45:43;;;;;;;0.00;0.00;;;26.80;51.60;;;;;;5046644;28;20094;-77
2022/08/12 06:48:10;;;;;;;0.77;0.77;;;26.90;51.30;;;;;;5050685;28;20496;-77
2022/08/12 06:50:37;;;;;;;0.50;0.30;;;26.90;48.20;;;;;;5040682;28;20055;-77
2022/08/12 06:53:04;;;;;;;0.90;0.35;;;26.50;49.60;;;;;;5052348;28;20493;-77
2022/08/12 06:55:35;;;;;;;0.35;0.35;;;26.50;50.50;;;;;;5053632;28;20430;-76
2022/08/12 06:58:03;;;;;;;0.30;0.25;;;26.60;50.50;;;;;;5054672;28;20498;-78
2022/08/12 07:00:34;;;;;;;0.15;0.10;;;26.80;50.50;;;;;;5049226;28;20037;-76
2022/08/12 07:03:03;;;;;;;1.40;0.63;;;26.80;50.10;;;;;;5049624;28;20383;-77
2022/08/12 07:05:30;;;;;;;0.00;0.00;;;26.70;49.80;;;;;;5050112;28;20076;-76
2022/08/12 07:08:01;;;;;;;3.08;2.63;;;26.70;49.40;;;;;;5055243;28;20033;-76
2022/08/12 07:10:31;;;;;;;0.00;0.00;;;26.60;49.50;;;;;;5052383;28;20407;-77
2022/08/12 07:13:00;;;;;;;0.52;0.52;;;27.00;51.10;;;;;;5044342;28;20074;-76
2022/08/12 07:15:27;;;;;;;1.75;0.38;;;26.80;50.90;;;;;;5040677;28;20049;-76
2022/08/12 07:18:11;;;;;;;0.00;0.00;;;26.90;50.80;;;;;;5032905;28;20156;-77
2022/08/12 07:20:42;;;;;;;1.00;0.30;;;26.90;49.90;;;;;;5028414;28;20037;-76
2022/08/12 07:23:09;;;;;;;3.58;1.25;;;27.10;50.10;;;;;;5027887;28;20033;-77
2022/08/12 07:25:36;;;;;;;0.30;0.30;;;27.50;50.60;;;;;;5026270;28;20034;-75
2022/08/12 07:28:05;;;;;;;1.25;1.20;;;27.10;50.10;;;;;;5028751;28;20037;-75
2022/08/12 07:30:36;;;;;;;4.72;4.53;;;27.00;48.80;;;;;;5031930;28;20510;-77
2022/08/12 07:33:03;;;;;;;0.35;0.15;;;27.00;49.00;;;;;;5031339;28;20041;-76
2022/08/12 07:35:33;;;;;;;1.13;0.65;;;27.40;49.70;;;;;;5030051;28;20036;-76
2022/08/12 07:37:59;;;;;;;0.00;0.00;;;27.10;49.30;;;;;;5027858;28;20068;-76
2022/08/12 07:40:28;;;;;;;0.00;0.00;;;27.30;49.20;;;;;;5027282;28;20028;-77
2022/08/12 07:42:55;;;;;;;2.47;1.38;;;27.60;48.90;;;;;;5026452;28;20036;-78
2022/08/12 07:45:23;;;;;;;1.08;0.77;;;27.70;48.80;;;;;;5027593;28;20053;-77
2022/08/12 07:47:50;;;;;;;0.43;0.10;;;27.70;48.30;;;;;;5038488;28;20044;-76
2022/08/12 07:50:18;;;;;;;0.00;0.00;;;27.90;49.00;;;;;;5031082;28;20395;-78
2022/08/12 07:52:46;;;;;;;0.00;0.00;;;28.20;47.40;;;;;;5030127;28;20033;-78
2022/08/12 07:55:15;;;;;;;0.00;0.00;;;28.50;47.00;;;;;;5036705;28;20032;-78
2022/08/12 07:57:56;;;;;;;1.05;0.38;;;28.50;46.70;;;;;;5036657;28;20357;-76
2022/08/12 08:00:24;;;;;;;0.00;0.00;;;28.00;47.40;;;;;;5025165;28;20117;-78
2022/08/12 08:02:52;;;;;;;0.10;0.05;;;27.90;48.90;;;;;;5026583;28;20443;-76
2022/08/12 08:05:19;;;;;;;0.55;0.38;;;27.70;48.10;;;;;;5024377;28;20031;-77
2022/08/12 08:07:45;;;;;;;0.30;0.30;;;27.60;48.50;;;;;;5018677;28;20033;-76
2022/08/12 08:10:12;;;;;;;2.85;0.95;;;27.70;48.30;;;;;;5027264;28;20081;-77
2022/08/12 08:12:55;;;;;;;0.20;0.20;;;28.00;48.30;;;;;;5036354;28;20116;-78
2022/08/12 08:15:24;;;;;;;1.65;1.65;;;28.20;48.70;;;;;;5029452;28;20059;-77
2022/08/12 08:17:56;;;;;;;0.00;0.00;;;28.50;47.90;;;;;;5047513;28;20029;-77
2022/08/12 08:20:27;;;;;;;0.17;0.17;;;28.80;46.90;;;;;;5044624;28;20478;-77
2022/08/12 08:22:57;;;;;;;0.80;0.73;;;28.80;47.30;;;;;;5046262;28;20041;-77
2022/08/12 08:25:31;;;;;;;1.13;0.52;;;28.60;46.40;;;;;;5047883;28;20079;-78
2022/08/12 08:28:02;;;;;;;1.17;0.75;;;28.30;47.60;;;;;;5046457;28;20113;-77
2022/08/12 08:30:30;;;;;;;0.05;0.00;;;27.90;47.60;;;;;;5049257;28;20745;-77
2022/08/12 08:32:57;;;;;;;0.00;0.00;;;27.80;48.30;;;;;;5047874;28;20041;-76
2022/08/12 08:35:26;;;;;;;0.00;0.00;;;27.80;48.80;;;;;;5040260;28;20028;-77
2022/08/12 08:38:05;;;;;;;0.70;0.20;;;28.20;49.10;;;;;;5048986;28;20036;-76
2022/08/12 08:43:16;;;;;;;4.20;0.57;;;28.40;47.80;;;;;;5044489;28;20052;-77
2022/08/12 08:45:44;;;;;;;0.88;0.82;;;28.70;47.00;;;;;;5049427;28;20053;-77
2022/08/12 08:48:11;;;;;;;0.00;0.00;;;29.00;45.60;;;;;;5042844;28;20124;-78
2022/08/12 08:50:37;;;;;;;2.75;2.55;;;29.00;46.20;;;;;;5046763;28;20037;-77
2022/08/12 08:53:07;;;;;;;0.70;0.70;;;29.10;45.20;;;;;;5048507;28;20387;-77
2022/08/12 08:55:34;;;;;;;0.08;0.08;;;29.10;47.10;;;;;;5048377;28;20376;-77
2022/08/12 08:58:01;;;;;;;0.47;0.47;;;29.20;45.90;;;;;;5048376;28;20155;-77
2022/08/12 09:00:29;;;;;;;0.00;0.00;;;29.50;45.50;;;;;;5033894;28;20079;-78
2022/08/12 09:02:55;;;;;;;1.17;1.13;;;29.20;45.10;;;;;;5041584;28;20036;-78
2022/08/12 09:05:21;;;;;;;0.80;0.80;;;29.10;45.30;;;;;;5052693;28;20033;-77
2022/08/12 09:07:49;;;;;;;2.15;0.80;;;28.90;46.50;;;;;;5048649;28;20052;-77
2022/08/12 09:10:18;;;;;;;0.20;0.20;;;28.30;47.30;;;;;;5042846;28;21227;-78
2022/08/12 09:15:37;;;;;;;0.00;0.00;;;28.20;47.30;;;;;;5048006;28;20520;-78
2022/08/12 09:18:06;;;;;;;0.88;0.70;;;28.60;47.40;;;;;;5047989;28;20041;-77
2022/08/12 09:20:34;;;;;;;0.63;0.63;;;28.70;47.00;;;;;;5051742;28;20025;-77
2022/08/12 09:23:04;;;;;;;0.10;0.10;;;28.80;46.90;;;;;;5044346;28;20041;-77
2022/08/12 09:25:31;;;;;;;1.08;0.98;;;28.70;46.40;;;;;;5049232;28;20476;-77
2022/08/12 09:27:58;;;;;;;0.10;0.10;;;28.70;46.30;;;;;;5048887;28;20029;-78
2022/08/12 09:30:26;;;;;;;0.35;0.15;;;28.80;46.60;;;;;;5049333;28;20661;-78
2022/08/12 09:32:52;;;;;;;2.08;1.98;;;28.80;47.00;;;;;;5049020;28;20128;-77
2022/08/12 09:35:26;;;;;;;5.05;1.15;;;29.00;46.60;;;;;;5049262;28;20025;-78
2022/08/12 09:37:54;;;;;;;0.85;0.85;;;28.80;46.00;;;;;;5048980;28;20040;-78
2022/08/12 09:40:22;;;;;;;0.10;0.10;;;28.70;46.80;;;;;;5045802;28;20041;-78
2022/08/12 09:45:35;;;;;;;0.22;0.22;;;29.00;46.00;;;;;;5050640;28;20077;-76
2022/08/12 09:48:07;;;;;;;0.05;0.05;;;29.00;46.30;;;;;;5050596;28;20418;-76
2022/08/12 09:50:34;;;;;;;0.00;0.00;;;29.10;46.60;;;;;;5052069;28;20063;-77
2022/08/12 09:53:13;;;;;;;1.55;1.23;;;29.10;46.80;;;;;;5045951;28;20059;-77
2022/08/12 09:55:47;;;;;;;0.00;0.00;;;28.70;46.20;;;;;;5047333;28;20091;-76
2022/08/12 09:58:17;;;;;;;0.00;0.00;;;28.40;46.80;;;;;;5051243;28;20060;-78
2022/08/12 10:00:46;;;;;;;0.40;0.20;;;28.40;47.20;;;;;;5051492;28;20029;-77
2022/08/12 10:03:13;;;;;;;0.90;0.60;;;28.60;47.60;;;;;;5050880;28;20431;-76
2022/08/12 10:05:42;;;;;;;0.00;0.00;;;28.70;46.70;;;;;;5050237;28;20059;-75
2022/08/12 10:08:14;;;;;;;0.00;0.00;;;28.90;47.10;;;;;;5050428;28;20121;-75
2022/08/12 10:13:43;;;;;;;4.47;1.13;;;28.70;47.40;;;;;;5049228;28;20049;-76
2022/08/12 10:16:16;;;;;;;0.00;0.00;;;28.30;47.70;;;;;;5053115;28;20045;-77
2022/08/12 10:19:04;;;;;;;0.10;0.10;;;28.30;48.60;;;;;;5048802;28;20052;-77
2022/08/12 10:21:40;;;;;;;0.00;0.00;;;28.60;48.10;;;;;;5049021;28;20426;-77
2022/08/12 10:24:20;;;;;;;0.00;0.00;;;28.70;48.00;;;;;;5046755;28;20075;-77
2022/08/12 10:29:43;;;;;;;0.35;0.35;;;28.90;47.20;;;;;;5045511;28;20132;-77
2022/08/12 10:32:15;;;;;;;3.20;1.38;;;28.80;47.30;;;;;;5047367;28;20440;-78
2022/08/12 10:34:42;;;;;;;0.25;0.17;;;28.50;47.50;;;;;;5047161;28;20037;-78
2022/08/12 10:37:08;;;;;;;0.35;0.30;;;28.30;47.90;;;;;;5050338;28;20388;-77
2022/08/12 10:39:38;;;;;;;0.13;0.13;;;28.30;47.70;;;;;;5051031;28;20032;-77
2022/08/12 10:45:00;;;;;;;0.05;0.05;;;28.20;47.20;;;;;;5043533;28;20401;-77
2022/08/12 10:47:27;;;;;;;0.25;0.17;;;28.20;47.60;;;;;;5046970;28;20033;-78
2022/08/12 10:49:54;;;;;;;0.60;0.60;;;28.30;48.20;;;;;;5046598;28;20112;-76
2022/08/12 10:52:23;;;;;;;0.00;0.00;;;28.40;47.80;;;;;;5045648;28;20072;-79
2022/08/12 10:54:49;;;;;;;0.00;0.00;;;28.60;47.90;;;;;;5042958;28;20383;-77
2022/08/12 10:57:16;;;;;;;0.00;0.00;;;28.70;47.30;;;;;;5045564;28;20499;-78
2022/08/12 10:59:43;;;;;;;0.00;0.00;;;28.70;47.00;;;;;;5047086;28;20040;-77
2022/08/12 11:02:14;;;;;;;0.00;0.00;;;28.40;46.80;;;;;;5047376;28;20376;-76
2022/08/12 11:04:41;;;;;;;0.98;0.60;;;28.30;47.10;;;;;;5043985;28;20049;-76
2022/08/12 11:07:08;;;;;;;0.00;0.00;;;28.00;47.30;;;;;;5046581;28;20501;-76
2022/08/12 11:09:36;;;;;;;0.00;0.00;;;28.00;47.80;;;;;;5047033;28;20048;-75
2022/08/12 11:12:08;;;;;;;0.40;0.40;;;28.10;47.80;;;;;;5045895;28;20028;-76
2022/08/12 11:14:37;;;;;;;1.02;1.00;;;28.30;47.70;;;;;;5046802;28;20029;-77
2022/08/12 11:17:08;;;;;;;2.65;1.67;;;28.30;47.40;;;;;;5033545;28;20165;-77
2022/08/12 11:19:40;;;;;;;0.08;0.08;;;28.30;48.00;;;;;;5029114;28;20045;-78
2022/08/12 11:22:08;;;;;;;0.35;0.35;;;28.30;48.30;;;;;;5009310;28;20479;-76
2022/08/12 11:24:35;;;;;;;0.00;0.00;;;28.40;47.90;;;;;;5026191;28;20537;-77
2022/08/12 11:27:05;;;;;;;0.00;0.00;;;28.50;47.80;;;;;;5034347;28;20045;-78
2022/08/12 11:29:32;;;;;;;0.47;0.47;;;28.60;47.70;;;;;;5021940;28;20492;-77
2022/08/12 11:31:58;;;;;;;0.00;0.00;;;28.40;47.10;;;;;;5022395;28;20041;-74
2022/08/12 11:34:24;;;;;;;0.00;0.00;;;28.50;47.40;;;;;;5026063;28;20060;-77
2022/08/12 11:37:06;;;;;;;0.00;0.00;;;28.60;47.50;;;;;;5026582;28;20038;-77
2022/08/12 11:39:33;;;;;;;0.10;0.10;;;28.70;47.70;;;;;;5033345;28;20088;-76
2022/08/12 11:42:00;;;;;;;0.00;0.00;;;28.60;47.70;;;;;;5033885;28;20057;-77
2022/08/12 11:44:26;;;;;;;0.13;0.13;;;28.70;47.80;;;;;;5033536;28;20037;-77
2022/08/12 11:46:53;;;;;;;1.23;1.20;;;28.70;47.40;;;;;;5024948;28;20041;-78
2022/08/12 11:49:27;;;;;;;0.35;0.22;;;28.50;47.30;;;;;;5021116;28;20049;-75
2022/08/12 11:51:53;;;;;;;0.00;0.00;;;28.30;48.10;;;;;;5025780;28;20045;-77
2022/08/12 11:54:19;;;;;;;0.20;0.20;;;28.30;48.10;;;;;;5024869;28;20033;-78
2022/08/12 11:56:46;;;;;;;0.00;0.00;;;28.40;48.30;;;;;;5026853;28;20041;-76
2022/08/12 11:59:12;;;;;;;0.00;0.00;;;28.50;47.60;;;;;;5030336;28;20452;-76
2022/08/12 12:01:38;;;;;;;0.00;0.00;;;28.30;46.60;;;;;;5032563;28;20132;-76
2022/08/12 12:04:04;;;;;;;0.20;0.20;;;28.30;46.90;;;;;;5028400;28;20074;-77
2022/08/12 12:06:30;;;;;;;0.00;0.00;;;28.10;47.30;;;;;;5025748;28;20029;-76
2022/08/12 12:08:56;;;;;;;0.00;0.00;;;28.10;48.20;;;;;;5027543;28;20037;-76
2022/08/12 12:11:22;;;;;;;0.20;0.20;;;28.10;48.60;;;;;;5026105;28;20439;-76
2022/08/12 12:13:49;;;;;;;0.20;0.20;;;28.10;48.50;;;;;;5026762;28;20453;-76
2022/08/12 12:16:15;;;;;;;0.52;0.52;;;28.00;48.90;;;;;;5036226;28;20042;-76
2022/08/12 12:18:41;;;;;;;0.00;0.00;;;28.00;48.10;;;;;;5047791;28;20096;-76
2022/08/12 12:21:08;;;;;;;0.40;0.25;;;28.00;48.30;;;;;;5052150;28;20037;-77
2022/08/12 12:23:36;;;;;;;0.00;0.00;;;28.10;48.20;;;;;;5050107;28;20087;-77
2022/08/12 12:26:05;;;;;;;0.00;0.00;;;28.10;47.50;;;;;;5052159;28;20041;-77
2022/08/12 12:28:31;;;;;;;0.00;0.00;;;28.10;47.70;;;;;;5052985;28;20040;-77
2022/08/12 12:30:58;;;;;;;2.92;2.72;;;28.00;48.10;;;;;;5048134;28;20053;-77
2022/08/12 12:33:24;;;;;;;0.00;0.00;;;27.80;48.10;;;;;;5050625;28;20025;-77
2022/08/12 12:35:50;;;;;;;0.00;0.00;;;27.80;49.20;;;;;;5054192;28;20029;-77
2022/08/12 12:38:17;;;;;;;0.00;0.00;;;27.80;48.40;;;;;;5052536;28;20037;-77
2022/08/12 12:40:44;;;;;;;0.00;0.00;;;27.90;48.60;;;;;;5052993;28;20116;-77
2022/08/12 12:43:12;;;;;;;0.00;0.00;;;27.90;48.40;;;;;;5051394;28;20122;-77
2022/08/12 12:45:39;;;;;;;0.00;0.00;;;27.90;47.60;;;;;;5046324;28;20044;-77
2022/08/12 12:48:10;;;;;;;0.00;0.00;;;27.80;47.80;;;;;;5051826;28;20473;-77
2022/08/12 12:51:14;;;;;;;0.00;0.00;;;27.80;47.70;;;;;;5046795;28;20514;-77
2022/08/12 12:53:38;;;;;;;0.28;0.28;;;27.80;47.70;;;;;;5054620;28;20041;-77
2022/08/12 12:56:09;;;;;;;0.00;0.00;;;27.70;47.50;;;;;;5054549;28;20033;-77
2022/08/12 12:58:36;;;;;;;0.22;0.22;;;27.70;47.80;;;;;;5052543;28;20509;-77
2022/08/12 13:01:05;;;;;;;0.00;0.00;;;27.70;47.90;;;;;;5052130;28;20056;-77
2022/08/12 13:03:34;;;;;;;0.00;0.00;;;27.80;47.50;;;;;;5035230;28;20452;-77
2022/08/12 13:06:01;;;;;;;0.47;0.47;;;27.90;47.20;;;;;;5036124;28;20394;-76
2022/08/12 13:08:29;;;;;;;0.00;0.00;;;28.00;47.20;;;;;;5046973;28;20124;-76
2022/08/12 13:11:02;;;;;;;2.92;2.80;;;27.90;47.40;;;;;;5053751;28;20075;-77
2022/08/12 13:13:31;;;;;;;0.00;0.00;;;27.80;47.40;;;;;;5054120;28;20083;-77
2022/08/12 13:16:00;;;;;;;0.00;0.00;;;27.80;47.30;;;;;;5054081;28;20506;-76
2022/08/12 13:18:35;;;;;;;0.00;0.00;;;27.80;47.40;;;;;;5052953;28;20048;-76
2022/08/12 13:21:05;;;;;;;0.30;0.30;;;27.80;47.10;;;;;;5052124;28;20068;-76
2022/08/12 13:23:32;;;;;;;0.20;0.20;;;27.70;47.50;;;;;;5053827;28;20033;-77
2022/08/12 13:26:00;;;;;;;0.10;0.10;;;27.50;48.80;;;;;;5054067;28;20063;-77
2022/08/12 13:28:28;;;;;;;0.55;0.20;;;27.40;48.30;;;;;;5056341;28;20036;-76
2022/08/12 13:30:58;;;;;;;0.00;0.00;;;27.50;48.40;;;;;;5050226;28;20121;-76
2022/08/12 13:33:28;;;;;;;0.00;0.00;;;27.40;48.60;;;;;;5044194;28;20029;-76
2022/08/12 13:36:02;;;;;;;0.00;0.00;;;27.40;48.70;;;;;;5049413;28;20033;-76
2022/08/12 13:38:45;;;;;;;0.55;0.55;;;27.50;48.30;;;;;;5048933;28;20037;-77
2022/08/12 13:41:31;;;;;;;0.00;0.00;;;27.50;47.90;;;;;;5045252;28;20029;-76
2022/08/12 13:44:04;;;;;;;1.55;1.55;;;27.40;48.70;;;;;;5043663;28;20353;-78
2022/08/12 13:46:30;;;;;;;0.00;0.00;;;27.30;48.70;;;;;;5045592;28;20063;-76
2022/08/12 13:48:57;;;;;;;0.00;0.00;;;27.40;48.40;;;;;;5048713;28;20036;-75
2022/08/12 13:51:23;;;;;;;0.00;0.00;;;27.30;49.20;;;;;;5046509;28;20044;-76
2022/08/12 13:53:50;;;;;;;0.00;0.00;;;27.10;49.40;;;;;;5048409;28;20041;-76
2022/08/12 13:56:17;;;;;;;0.00;0.00;;;27.00;50.60;;;;;;5044693;28;20173;-76
2022/08/12 13:58:48;;;;;;;0.00;0.00;;;26.80;50.80;;;;;;5051779;28;20025;-77
2022/08/12 14:01:16;;;;;;;1.38;1.38;;;26.80;51.50;;;;;;5052356;28;20044;-76
2022/08/12 14:03:42;;;;;;;0.00;0.00;;;26.80;51.60;;;;;;5054644;28;20033;-76
2022/08/12 14:06:11;;;;;;;0.00;0.00;;;26.60;51.60;;;;;;5053216;28;20033;-76
2022/08/12 14:08:37;;;;;;;0.00;0.00;;;26.30;52.00;;;;;;5053851;28;20032;-76
2022/08/12 14:11:04;;;;;;;0.00;0.00;;;26.10;52.50;;;;;;5050386;28;20032;-76
2022/08/12 14:13:31;;;;;;;0.65;0.65;;;26.10;53.00;;;;;;5040602;28;20060;-76
2022/08/12 14:16:01;;;;;;;0.00;0.00;;;25.90;53.40;;;;;;5043053;28;20048;-76
2022/08/12 14:18:30;;;;;;;0.00;0.00;;;25.90;54.00;;;;;;5042633;28;20033;-76
2022/08/12 14:21:04;;;;;;;0.00;0.00;;;25.80;54.50;;;;;;5052267;28;20070;-76
2022/08/12 14:23:33;;;;;;;0.00;0.00;;;25.70;54.70;;;;;;5054837;28;20032;-77
2022/08/12 14:26:01;;;;;;;0.00;0.00;;;25.60;55.00;;;;;;5048119;28;20053;-76
2022/08/12 14:28:31;;;;;;;0.00;0.00;;;25.50;55.40;;;;;;5049120;28;20498;-75
2022/08/12 14:31:05;;;;;;;0.03;0.03;;;25.40;55.50;;;;;;5035314;28;20076;-76
2022/08/12 14:33:34;;;;;;;0.00;0.00;;;25.30;56.20;;;;;;5046752;28;20025;-76
2022/08/12 14:36:09;;;;;;;0.00;0.00;;;25.30;56.30;;;;;;5050091;28;20553;-77
2022/08/12 14:38:40;;;;;;;0.00;0.00;;;25.20;56.70;;;;;;5045444;28;20487;-78
2022/08/12 14:41:08;;;;;;;0.00;0.00;;;25.10;57.00;;;;;;5040197;28;20037;-77
2022/08/12 14:43:37;;;;;;;0.00;0.00;;;25.10;56.90;;;;;;5038856;28;20071;-77
2022/08/12 14:46:05;;;;;;;0.00;0.00;;;25.00;57.00;;;;;;5054568;28;20041;-78